Pagrindinis puslapis
METAR-TAF:

METAR-TAF

Oro uostai :

Rijeka, Kroatija

platuma: 45-13N, ilguma: 014-35E, Aukštis: 85 m

Dabartinis oras

Ataskaita buvo paskelbta 42 minutes, ne 03:00 UTC
Vėjas 1 kt iš Rytų
Temperatūra 6°C
Drėgmė 93%
Slėgis 1022 hPa
Matomumas 10 km arba daugiau
nėra debesų žemiau 1500 m ir nėra kamuolinių lietaus debesų

METAR: LDRI 180300Z 09001KT CAVOK 06/05 Q1022

Laikas: 04:42 (03:42 UTC)

Prognozė

Ataskaita buvo paskelbta 4 valandos ir 17 minutes, ne 23:25 UTC
Prognozė galioja nuo 18 metu 00 UTC su 19 metu 00 UTC
Vėjas 2 kt nuo kintamojo kryptimis
Matomumas 10 km arba daugiau
Su prošvaistėmis ne aukštis 4000 ft
Laikinai
nuo 18 metu 10 UTC su 19 metu 00 UTC
lietus
Tapsmas
nuo 18 metu 16 UTC su 18 metu 18 UTC
Vėjas 10 kt iš Rytų/Šiaurės Rytų
Laikinai
nuo 18 metu 20 UTC su 19 metu 00 UTC
Vėjas 15 kt iš Rytų/Šiaurės Rytų su gūsio iki 25 kt

TAF: LDRI 172325Z 1800/1900 VRB02KT 9999 BKN040 TX10/1812Z TN04/1823Z TEMPO 1810/1900 RA BECMG 1816/1818 06010KT TEMPO 1820/1900 06015G25KT

Orai ataskaitas ir orų prognozės (METAR, TAF).

turimą stotys yra geltonos ir raudonos taškus žemėlapyje.

Perkelti pele per norėdami pamatyti stoties vardą.

Tada spustelėkite, norėdami matyti oro stebėjimo ir prognozės.

Norėdami pakeisti žemėlapį: spustelėkite ant žalios mygtukų su juodo kryžiaus žemyn,; žalią mygtuką su brūkšneliu, jei norite nutolinti; arba žalių rodyklių gretimoms žemėlapius.


METAR-TAF: